sensor_id;sensor_type;location;lat;lon;timestamp;temperature;humidity
29551;DHT22;16488;52.396;10.696;2022-07-10T00:01:47;14.50;99.90
29551;DHT22;16488;52.396;10.696;2022-07-10T00:04:13;14.50;99.90
29551;DHT22;16488;52.396;10.696;2022-07-10T00:06:38;14.60;99.90
29551;DHT22;16488;52.396;10.696;2022-07-10T00:09:07;14.60;99.90
29551;DHT22;16488;52.396;10.696;2022-07-10T00:11:32;14.60;99.90
29551;DHT22;16488;52.396;10.696;2022-07-10T00:13:58;14.50;99.90
29551;DHT22;16488;52.396;10.696;2022-07-10T00:16:23;14.50;99.90
29551;DHT22;16488;52.396;10.696;2022-07-10T00:18:50;14.50;99.90
29551;DHT22;16488;52.396;10.696;2022-07-10T00:21:16;14.50;99.90
29551;DHT22;16488;52.396;10.696;2022-07-10T00:23:42;14.50;99.90
29551;DHT22;16488;52.396;10.696;2022-07-10T00:26:07;14.50;99.90
29551;DHT22;16488;52.396;10.696;2022-07-10T00:28:34;14.50;99.90
29551;DHT22;16488;52.396;10.696;2022-07-10T00:31:00;14.40;99.90
29551;DHT22;16488;52.396;10.696;2022-07-10T00:33:26;14.40;99.90
29551;DHT22;16488;52.396;10.696;2022-07-10T00:35:53;14.40;99.90
29551;DHT22;16488;52.396;10.696;2022-07-10T00:38:19;14.40;99.90
29551;DHT22;16488;52.396;10.696;2022-07-10T00:40:44;14.40;99.90
29551;DHT22;16488;52.396;10.696;2022-07-10T00:43:10;14.40;99.90
29551;DHT22;16488;52.396;10.696;2022-07-10T00:45:36;14.30;99.90
29551;DHT22;16488;52.396;10.696;2022-07-10T00:48:01;14.30;99.90
29551;DHT22;16488;52.396;10.696;2022-07-10T00:50:27;14.20;99.90
29551;DHT22;16488;52.396;10.696;2022-07-10T00:52:53;14.20;99.90
29551;DHT22;16488;52.396;10.696;2022-07-10T00:55:19;14.20;99.90
29551;DHT22;16488;52.396;10.696;2022-07-10T00:57:45;14.20;99.90
29551;DHT22;16488;52.396;10.696;2022-07-10T01:00:11;14.20;99.90
29551;DHT22;16488;52.396;10.696;2022-07-10T01:02:41;14.20;99.90
29551;DHT22;16488;52.396;10.696;2022-07-10T01:05:08;14.10;99.90
29551;DHT22;16488;52.396;10.696;2022-07-10T01:07:33;14.00;99.90
29551;DHT22;16488;52.396;10.696;2022-07-10T01:09:59;13.90;99.90
29551;DHT22;16488;52.396;10.696;2022-07-10T01:12:26;13.80;99.90
29551;DHT22;16488;52.396;10.696;2022-07-10T01:14:53;13.70;99.90
29551;DHT22;16488;52.396;10.696;2022-07-10T01:17:18;13.60;99.90
29551;DHT22;16488;52.396;10.696;2022-07-10T01:19:44;13.40;99.90
29551;DHT22;16488;52.396;10.696;2022-07-10T01:22:10;13.30;99.90
29551;DHT22;16488;52.396;10.696;2022-07-10T01:24:36;13.20;99.90
29551;DHT22;16488;52.396;10.696;2022-07-10T01:27:02;13.10;99.90
29551;DHT22;16488;52.396;10.696;2022-07-10T01:29:28;13.10;99.90
29551;DHT22;16488;52.396;10.696;2022-07-10T01:31:54;13.10;99.90
29551;DHT22;16488;52.396;10.696;2022-07-10T01:34:20;13.00;99.90
29551;DHT22;16488;52.396;10.696;2022-07-10T01:36:46;13.00;99.90
29551;DHT22;16488;52.396;10.696;2022-07-10T01:39:12;13.00;99.90
29551;DHT22;16488;52.396;10.696;2022-07-10T01:41:38;13.00;99.90
29551;DHT22;16488;52.396;10.696;2022-07-10T01:44:03;13.10;99.90
29551;DHT22;16488;52.396;10.696;2022-07-10T01:46:29;13.00;99.90
29551;DHT22;16488;52.396;10.696;2022-07-10T01:48:55;13.10;99.90
29551;DHT22;16488;52.396;10.696;2022-07-10T01:51:21;13.10;99.90
29551;DHT22;16488;52.396;10.696;2022-07-10T01:53:47;13.10;99.90
29551;DHT22;16488;52.396;10.696;2022-07-10T01:56:14;13.00;99.90
29551;DHT22;16488;52.396;10.696;2022-07-10T01:58:39;13.10;99.90
29551;DHT22;16488;52.396;10.696;2022-07-10T02:01:06;13.10;99.90
29551;DHT22;16488;52.396;10.696;2022-07-10T02:03:32;13.10;99.90
29551;DHT22;16488;52.396;10.696;2022-07-10T02:06:16;13.00;99.90
29551;DHT22;16488;52.396;10.696;2022-07-10T02:08:42;13.00;99.90
29551;DHT22;16488;52.396;10.696;2022-07-10T02:11:08;13.10;99.90
29551;DHT22;16488;52.396;10.696;2022-07-10T02:13:33;13.00;99.90
29551;DHT22;16488;52.396;10.696;2022-07-10T02:15:59;13.00;99.90
29551;DHT22;16488;52.396;10.696;2022-07-10T02:18:25;13.00;99.90
29551;DHT22;16488;52.396;10.696;2022-07-10T02:20:51;13.00;99.90
29551;DHT22;16488;52.396;10.696;2022-07-10T02:23:17;13.00;99.90
29551;DHT22;16488;52.396;10.696;2022-07-10T02:25:43;13.10;99.90
29551;DHT22;16488;52.396;10.696;2022-07-10T02:28:09;13.10;99.90
29551;DHT22;16488;52.396;10.696;2022-07-10T02:30:35;13.20;99.90
29551;DHT22;16488;52.396;10.696;2022-07-10T02:33:00;13.20;99.90
29551;DHT22;16488;52.396;10.696;2022-07-10T02:35:26;13.20;99.90
29551;DHT22;16488;52.396;10.696;2022-07-10T02:37:52;13.20;99.90
29551;DHT22;16488;52.396;10.696;2022-07-10T02:40:17;13.20;99.90
29551;DHT22;16488;52.396;10.696;2022-07-10T02:42:43;13.20;99.90
29551;DHT22;16488;52.396;10.696;2022-07-10T02:45:08;13.20;99.90
29551;DHT22;16488;52.396;10.696;2022-07-10T02:47:34;13.10;99.90
29551;DHT22;16488;52.396;10.696;2022-07-10T02:50:00;13.20;99.90
29551;DHT22;16488;52.396;10.696;2022-07-10T02:52:26;13.10;99.90
29551;DHT22;16488;52.396;10.696;2022-07-10T02:54:51;13.20;99.90
29551;DHT22;16488;52.396;10.696;2022-07-10T02:57:17;13.10;99.90
29551;DHT22;16488;52.396;10.696;2022-07-10T02:59:43;13.20;99.90
29551;DHT22;16488;52.396;10.696;2022-07-10T03:02:08;13.20;99.90
29551;DHT22;16488;52.396;10.696;2022-07-10T03:04:34;13.20;99.90
29551;DHT22;16488;52.396;10.696;2022-07-10T03:07:00;13.20;99.90
29551;DHT22;16488;52.396;10.696;2022-07-10T03:09:25;13.20;99.90
29551;DHT22;16488;52.396;10.696;2022-07-10T03:11:51;13.20;99.90
29551;DHT22;16488;52.396;10.696;2022-07-10T03:14:17;13.20;99.90
29551;DHT22;16488;52.396;10.696;2022-07-10T03:16:43;13.20;99.90
29551;DHT22;16488;52.396;10.696;2022-07-10T03:19:09;13.20;99.90
29551;DHT22;16488;52.396;10.696;2022-07-10T03:21:34;13.20;99.90
29551;DHT22;16488;52.396;10.696;2022-07-10T03:24:00;13.20;99.90
29551;DHT22;16488;52.396;10.696;2022-07-10T03:26:25;13.10;99.90
29551;DHT22;16488;52.396;10.696;2022-07-10T03:28:52;13.20;99.90
29551;DHT22;16488;52.396;10.696;2022-07-10T03:31:17;13.10;99.90
29551;DHT22;16488;52.396;10.696;2022-07-10T03:33:43;13.10;99.90
29551;DHT22;16488;52.396;10.696;2022-07-10T03:36:08;13.10;99.90
29551;DHT22;16488;52.396;10.696;2022-07-10T03:38:34;13.00;99.90
29551;DHT22;16488;52.396;10.696;2022-07-10T03:40:59;13.00;99.90
29551;DHT22;16488;52.396;10.696;2022-07-10T03:43:25;13.00;99.90
29551;DHT22;16488;52.396;10.696;2022-07-10T03:45:51;13.00;99.90
29551;DHT22;16488;52.396;10.696;2022-07-10T03:48:17;13.00;99.90
29551;DHT22;16488;52.396;10.696;2022-07-10T03:50:43;13.00;99.90
29551;DHT22;16488;52.396;10.696;2022-07-10T03:53:09;13.00;99.90
29551;DHT22;16488;52.396;10.696;2022-07-10T03:55:34;13.00;99.90
29551;DHT22;16488;52.396;10.696;2022-07-10T03:58:00;12.90;99.90
29551;DHT22;16488;52.396;10.696;2022-07-10T04:00:29;12.90;99.90
29551;DHT22;16488;52.396;10.696;2022-07-10T04:03:02;12.80;99.90
29551;DHT22;16488;52.396;10.696;2022-07-10T04:05:29;12.80;99.90
29551;DHT22;16488;52.396;10.696;2022-07-10T04:07:55;12.80;99.90
29551;DHT22;16488;52.396;10.696;2022-07-10T04:10:22;12.80;99.90
29551;DHT22;16488;52.396;10.696;2022-07-10T04:12:48;12.80;99.90
29551;DHT22;16488;52.396;10.696;2022-07-10T04:15:14;12.80;99.90
29551;DHT22;16488;52.396;10.696;2022-07-10T04:17:40;12.80;99.90
29551;DHT22;16488;52.396;10.696;2022-07-10T04:20:06;12.80;99.90
29551;DHT22;16488;52.396;10.696;2022-07-10T04:22:32;12.80;99.90
29551;DHT22;16488;52.396;10.696;2022-07-10T04:24:57;12.80;99.90
29551;DHT22;16488;52.396;10.696;2022-07-10T04:27:23;12.90;99.90
29551;DHT22;16488;52.396;10.696;2022-07-10T04:29:49;12.80;99.90
29551;DHT22;16488;52.396;10.696;2022-07-10T04:32:18;12.90;99.90
29551;DHT22;16488;52.396;10.696;2022-07-10T04:34:44;12.90;99.90
29551;DHT22;16488;52.396;10.696;2022-07-10T04:37:09;12.90;99.90
29551;DHT22;16488;52.396;10.696;2022-07-10T04:39:36;12.90;99.90
29551;DHT22;16488;52.396;10.696;2022-07-10T04:42:03;12.90;99.90
29551;DHT22;16488;52.396;10.696;2022-07-10T04:44:29;12.80;99.90
29551;DHT22;16488;52.396;10.696;2022-07-10T04:46:55;12.90;99.90
29551;DHT22;16488;52.396;10.696;2022-07-10T04:49:21;12.90;99.90
29551;DHT22;16488;52.396;10.696;2022-07-10T04:51:46;12.90;99.90
29551;DHT22;16488;52.396;10.696;2022-07-10T04:54:12;12.90;99.90
29551;DHT22;16488;52.396;10.696;2022-07-10T04:56:37;12.90;99.90
29551;DHT22;16488;52.396;10.696;2022-07-10T04:59:03;13.00;99.90
29551;DHT22;16488;52.396;10.696;2022-07-10T05:01:29;13.00;99.90
29551;DHT22;16488;52.396;10.696;2022-07-10T05:03:54;13.00;99.90
29551;DHT22;16488;52.396;10.696;2022-07-10T05:06:20;13.00;99.90
29551;DHT22;16488;52.396;10.696;2022-07-10T05:08:46;13.10;99.90
29551;DHT22;16488;52.396;10.696;2022-07-10T05:11:11;13.10;99.90
29551;DHT22;16488;52.396;10.696;2022-07-10T05:13:37;13.10;99.90
29551;DHT22;16488;52.396;10.696;2022-07-10T05:16:04;13.10;99.90
29551;DHT22;16488;52.396;10.696;2022-07-10T05:18:30;13.10;99.90
29551;DHT22;16488;52.396;10.696;2022-07-10T05:20:55;13.10;99.90
29551;DHT22;16488;52.396;10.696;2022-07-10T05:23:21;13.10;99.90
29551;DHT22;16488;52.396;10.696;2022-07-10T05:25:47;13.20;99.90
29551;DHT22;16488;52.396;10.696;2022-07-10T05:28:12;13.20;99.90
29551;DHT22;16488;52.396;10.696;2022-07-10T05:30:41;13.20;99.90
29551;DHT22;16488;52.396;10.696;2022-07-10T05:33:07;13.30;99.90
29551;DHT22;16488;52.396;10.696;2022-07-10T05:35:32;13.30;99.90
29551;DHT22;16488;52.396;10.696;2022-07-10T05:37:59;13.30;99.90
29551;DHT22;16488;52.396;10.696;2022-07-10T05:40:24;13.30;99.90
29551;DHT22;16488;52.396;10.696;2022-07-10T05:42:50;13.30;99.90
29551;DHT22;16488;52.396;10.696;2022-07-10T05:45:15;13.40;99.90
29551;DHT22;16488;52.396;10.696;2022-07-10T05:47:41;13.40;99.90
29551;DHT22;16488;52.396;10.696;2022-07-10T05:50:07;13.50;99.90
29551;DHT22;16488;52.396;10.696;2022-07-10T05:52:33;13.50;99.90
29551;DHT22;16488;52.396;10.696;2022-07-10T05:54:59;13.60;99.90
29551;DHT22;16488;52.396;10.696;2022-07-10T05:57:25;13.60;99.90
29551;DHT22;16488;52.396;10.696;2022-07-10T05:59:50;13.60;99.90
29551;DHT22;16488;52.396;10.696;2022-07-10T06:02:16;13.70;99.90
29551;DHT22;16488;52.396;10.696;2022-07-10T06:04:42;13.70;99.90
29551;DHT22;16488;52.396;10.696;2022-07-10T06:07:08;13.70;99.90
29551;DHT22;16488;52.396;10.696;2022-07-10T06:09:34;13.70;99.90
29551;DHT22;16488;52.396;10.696;2022-07-10T06:12:00;13.70;99.90
29551;DHT22;16488;52.396;10.696;2022-07-10T06:14:25;13.80;99.90
29551;DHT22;16488;52.396;10.696;2022-07-10T06:16:51;13.80;99.90
29551;DHT22;16488;52.396;10.696;2022-07-10T06:19:16;13.90;99.90
29551;DHT22;16488;52.396;10.696;2022-07-10T06:21:43;14.00;99.90
29551;DHT22;16488;52.396;10.696;2022-07-10T06:24:09;14.00;99.90
29551;DHT22;16488;52.396;10.696;2022-07-10T06:26:35;14.00;99.90
29551;DHT22;16488;52.396;10.696;2022-07-10T06:29:00;14.10;99.90
29551;DHT22;16488;52.396;10.696;2022-07-10T06:31:26;14.10;99.90
29551;DHT22;16488;52.396;10.696;2022-07-10T06:33:51;14.10;99.90
29551;DHT22;16488;52.396;10.696;2022-07-10T06:36:17;14.10;99.90
29551;DHT22;16488;52.396;10.696;2022-07-10T06:38:43;14.10;99.90
29551;DHT22;16488;52.396;10.696;2022-07-10T06:41:08;14.20;99.90
29551;DHT22;16488;52.396;10.696;2022-07-10T06:43:34;14.20;99.90
29551;DHT22;16488;52.396;10.696;2022-07-10T06:46:00;14.40;99.90
29551;DHT22;16488;52.396;10.696;2022-07-10T06:48:26;14.40;99.90
29551;DHT22;16488;52.396;10.696;2022-07-10T06:50:53;14.40;99.90
29551;DHT22;16488;52.396;10.696;2022-07-10T06:53:19;14.50;99.90
29551;DHT22;16488;52.396;10.696;2022-07-10T06:55:50;14.50;99.90
29551;DHT22;16488;52.396;10.696;2022-07-10T06:58:16;14.50;99.90
29551;DHT22;16488;52.396;10.696;2022-07-10T07:00:42;14.60;99.90
29551;DHT22;16488;52.396;10.696;2022-07-10T07:03:07;14.70;99.90
29551;DHT22;16488;52.396;10.696;2022-07-10T07:05:33;14.80;99.90
29551;DHT22;16488;52.396;10.696;2022-07-10T07:07:59;14.80;99.90
29551;DHT22;16488;52.396;10.696;2022-07-10T07:10:24;14.80;99.90
29551;DHT22;16488;52.396;10.696;2022-07-10T07:12:51;14.90;99.90
29551;DHT22;16488;52.396;10.696;2022-07-10T07:15:17;14.80;99.90
29551;DHT22;16488;52.396;10.696;2022-07-10T07:17:43;14.90;99.90
29551;DHT22;16488;52.396;10.696;2022-07-10T07:20:44;15.00;99.90
29551;DHT22;16488;52.396;10.696;2022-07-10T07:23:28;15.10;99.90
29551;DHT22;16488;52.396;10.696;2022-07-10T07:25:54;15.20;99.90
29551;DHT22;16488;52.396;10.696;2022-07-10T07:28:20;15.20;99.90
29551;DHT22;16488;52.396;10.696;2022-07-10T07:30:50;15.10;99.90
29551;DHT22;16488;52.396;10.696;2022-07-10T07:33:16;15.20;99.90
29551;DHT22;16488;52.396;10.696;2022-07-10T07:35:42;15.20;99.90
29551;DHT22;16488;52.396;10.696;2022-07-10T07:38:08;15.30;99.90
29551;DHT22;16488;52.396;10.696;2022-07-10T07:40:34;15.30;99.90
29551;DHT22;16488;52.396;10.696;2022-07-10T07:43:00;15.30;99.90
29551;DHT22;16488;52.396;10.696;2022-07-10T07:45:26;15.30;99.90
29551;DHT22;16488;52.396;10.696;2022-07-10T07:47:53;15.40;99.90
29551;DHT22;16488;52.396;10.696;2022-07-10T07:50:23;15.40;99.90
29551;DHT22;16488;52.396;10.696;2022-07-10T07:52:49;15.40;99.90
29551;DHT22;16488;52.396;10.696;2022-07-10T07:55:16;15.30;99.90
29551;DHT22;16488;52.396;10.696;2022-07-10T07:57:42;15.40;99.90
29551;DHT22;16488;52.396;10.696;2022-07-10T08:00:09;15.40;99.90
29551;DHT22;16488;52.396;10.696;2022-07-10T08:02:35;15.50;99.90
29551;DHT22;16488;52.396;10.696;2022-07-10T08:05:02;15.60;99.90
29551;DHT22;16488;52.396;10.696;2022-07-10T08:07:34;15.70;99.90
29551;DHT22;16488;52.396;10.696;2022-07-10T08:10:01;15.80;99.90
29551;DHT22;16488;52.396;10.696;2022-07-10T08:12:26;15.80;99.90
29551;DHT22;16488;52.396;10.696;2022-07-10T08:14:52;15.90;99.90
29551;DHT22;16488;52.396;10.696;2022-07-10T08:17:18;16.00;99.90
29551;DHT22;16488;52.396;10.696;2022-07-10T08:19:44;16.10;99.90
29551;DHT22;16488;52.396;10.696;2022-07-10T08:22:09;16.10;99.90
29551;DHT22;16488;52.396;10.696;2022-07-10T08:24:35;16.10;99.90
29551;DHT22;16488;52.396;10.696;2022-07-10T08:27:00;16.00;99.90
29551;DHT22;16488;52.396;10.696;2022-07-10T08:29:26;15.90;99.90
29551;DHT22;16488;52.396;10.696;2022-07-10T08:31:51;15.90;99.90
29551;DHT22;16488;52.396;10.696;2022-07-10T08:34:17;16.20;99.90
29551;DHT22;16488;52.396;10.696;2022-07-10T08:36:43;16.50;99.90
29551;DHT22;16488;52.396;10.696;2022-07-10T08:39:09;16.80;99.90
29551;DHT22;16488;52.396;10.696;2022-07-10T08:41:35;16.80;99.90
29551;DHT22;16488;52.396;10.696;2022-07-10T08:44:02;16.60;99.90
29551;DHT22;16488;52.396;10.696;2022-07-10T08:46:27;16.40;99.90
29551;DHT22;16488;52.396;10.696;2022-07-10T08:48:59;16.30;99.90
29551;DHT22;16488;52.396;10.696;2022-07-10T08:51:45;16.20;99.90
29551;DHT22;16488;52.396;10.696;2022-07-10T08:54:14;16.10;99.90
29551;DHT22;16488;52.396;10.696;2022-07-10T08:56:41;16.10;99.90
29551;DHT22;16488;52.396;10.696;2022-07-10T08:59:12;16.10;99.90
29551;DHT22;16488;52.396;10.696;2022-07-10T09:01:39;16.10;99.90
29551;DHT22;16488;52.396;10.696;2022-07-10T09:04:05;16.20;99.90
29551;DHT22;16488;52.396;10.696;2022-07-10T09:06:31;16.20;99.90
29551;DHT22;16488;52.396;10.696;2022-07-10T09:09:04;16.10;99.90
29551;DHT22;16488;52.396;10.696;2022-07-10T09:11:30;16.20;99.90
29551;DHT22;16488;52.396;10.696;2022-07-10T09:14:01;16.40;99.90
29551;DHT22;16488;52.396;10.696;2022-07-10T09:16:32;16.60;99.90
29551;DHT22;16488;52.396;10.696;2022-07-10T09:19:16;16.80;99.90
29551;DHT22;16488;52.396;10.696;2022-07-10T09:21:42;17.10;99.90
29551;DHT22;16488;52.396;10.696;2022-07-10T09:24:09;17.00;99.90
29551;DHT22;16488;52.396;10.696;2022-07-10T09:26:39;16.90;99.90
29551;DHT22;16488;52.396;10.696;2022-07-10T09:29:10;16.70;99.90
29551;DHT22;16488;52.396;10.696;2022-07-10T09:34:43;16.70;99.90
29551;DHT22;16488;52.396;10.696;2022-07-10T09:37:28;16.80;99.90
29551;DHT22;16488;52.396;10.696;2022-07-10T09:40:04;16.90;99.90
29551;DHT22;16488;52.396;10.696;2022-07-10T09:42:43;16.90;99.90
29551;DHT22;16488;52.396;10.696;2022-07-10T09:47:53;16.90;99.90
29551;DHT22;16488;52.396;10.696;2022-07-10T09:50:34;17.10;99.90
29551;DHT22;16488;52.396;10.696;2022-07-10T09:53:01;17.40;99.90
29551;DHT22;16488;52.396;10.696;2022-07-10T09:55:29;17.50;99.90
29551;DHT22;16488;52.396;10.696;2022-07-10T09:58:02;17.40;99.90
29551;DHT22;16488;52.396;10.696;2022-07-10T10:00:39;17.50;97.80
29551;DHT22;16488;52.396;10.696;2022-07-10T10:03:08;17.50;98.30
29551;DHT22;16488;52.396;10.696;2022-07-10T10:05:43;17.40;98.30
29551;DHT22;16488;52.396;10.696;2022-07-10T10:10:44;17.60;99.90
29551;DHT22;16488;52.396;10.696;2022-07-10T10:13:11;17.70;98.90
29551;DHT22;16488;52.396;10.696;2022-07-10T10:15:42;18.00;97.70
29551;DHT22;16488;52.396;10.696;2022-07-10T10:18:09;18.10;97.80
29551;DHT22;16488;52.396;10.696;2022-07-10T10:20:36;18.10;97.20
29551;DHT22;16488;52.396;10.696;2022-07-10T10:23:04;17.70;96.20
29551;DHT22;16488;52.396;10.696;2022-07-10T10:25:32;17.40;97.10
29551;DHT22;16488;52.396;10.696;2022-07-10T10:28:00;17.40;97.50
29551;DHT22;16488;52.396;10.696;2022-07-10T10:30:26;17.80;95.60
29551;DHT22;16488;52.396;10.696;2022-07-10T10:32:52;18.00;93.50
29551;DHT22;16488;52.396;10.696;2022-07-10T10:35:53;18.30;92.90
29551;DHT22;16488;52.396;10.696;2022-07-10T10:38:19;18.50;93.10
29551;DHT22;16488;52.396;10.696;2022-07-10T10:40:44;18.70;93.10
29551;DHT22;16488;52.396;10.696;2022-07-10T10:45:43;18.70;92.20
29551;DHT22;16488;52.396;10.696;2022-07-10T10:48:13;18.50;93.10
29551;DHT22;16488;52.396;10.696;2022-07-10T10:53:18;18.20;93.90
29551;DHT22;16488;52.396;10.696;2022-07-10T10:58:26;18.10;95.40
29551;DHT22;16488;52.396;10.696;2022-07-10T11:00:52;18.00;95.70
29551;DHT22;16488;52.396;10.696;2022-07-10T11:03:27;18.00;94.90
29551;DHT22;16488;52.396;10.696;2022-07-10T11:05:53;17.90;93.90
29551;DHT22;16488;52.396;10.696;2022-07-10T11:08:38;18.00;93.00
29551;DHT22;16488;52.396;10.696;2022-07-10T11:13:58;18.60;91.50
29551;DHT22;16488;52.396;10.696;2022-07-10T11:16:28;18.90;90.50
29551;DHT22;16488;52.396;10.696;2022-07-10T11:18:57;19.20;86.40
29551;DHT22;16488;52.396;10.696;2022-07-10T11:21:24;19.10;90.00
29551;DHT22;16488;52.396;10.696;2022-07-10T11:23:56;19.20;86.80
29551;DHT22;16488;52.396;10.696;2022-07-10T11:27:02;18.90;89.40
29551;DHT22;16488;52.396;10.696;2022-07-10T11:29:36;18.70;88.10
29551;DHT22;16488;52.396;10.696;2022-07-10T11:32:03;18.40;88.80
29551;DHT22;16488;52.396;10.696;2022-07-10T11:34:37;18.40;89.60
29551;DHT22;16488;52.396;10.696;2022-07-10T11:37:14;18.50;89.60
29551;DHT22;16488;52.396;10.696;2022-07-10T11:39:39;18.60;88.70
29551;DHT22;16488;52.396;10.696;2022-07-10T11:42:05;18.60;88.70
29551;DHT22;16488;52.396;10.696;2022-07-10T11:44:30;18.70;90.10
29551;DHT22;16488;52.396;10.696;2022-07-10T11:46:56;18.90;89.90
29551;DHT22;16488;52.396;10.696;2022-07-10T11:49:23;19.20;88.70
29551;DHT22;16488;52.396;10.696;2022-07-10T11:51:49;19.50;87.50
29551;DHT22;16488;52.396;10.696;2022-07-10T11:54:16;19.60;88.20
29551;DHT22;16488;52.396;10.696;2022-07-10T11:56:49;19.70;85.20
29551;DHT22;16488;52.396;10.696;2022-07-10T11:59:15;19.70;86.90
29551;DHT22;16488;52.396;10.696;2022-07-10T12:01:42;19.60;85.00
29551;DHT22;16488;52.396;10.696;2022-07-10T12:04:08;19.50;82.60
29551;DHT22;16488;52.396;10.696;2022-07-10T12:06:37;19.60;85.80
29551;DHT22;16488;52.396;10.696;2022-07-10T12:09:06;19.70;84.90
29551;DHT22;16488;52.396;10.696;2022-07-10T12:11:33;19.40;85.20
29551;DHT22;16488;52.396;10.696;2022-07-10T12:14:18;19.30;87.00
29551;DHT22;16488;52.396;10.696;2022-07-10T12:16:49;19.30;87.80
29551;DHT22;16488;52.396;10.696;2022-07-10T12:19:18;19.40;86.40
29551;DHT22;16488;52.396;10.696;2022-07-10T12:21:47;19.30;87.20
29551;DHT22;16488;52.396;10.696;2022-07-10T12:24:15;19.50;88.60
29551;DHT22;16488;52.396;10.696;2022-07-10T12:26:43;19.80;85.20
29551;DHT22;16488;52.396;10.696;2022-07-10T12:29:29;19.70;84.50
29551;DHT22;16488;52.396;10.696;2022-07-10T12:31:57;19.50;85.70
29551;DHT22;16488;52.396;10.696;2022-07-10T12:34:39;19.30;86.40
29551;DHT22;16488;52.396;10.696;2022-07-10T12:37:10;19.00;86.90
29551;DHT22;16488;52.396;10.696;2022-07-10T12:39:52;18.90;86.70
29551;DHT22;16488;52.396;10.696;2022-07-10T12:42:31;19.00;87.70
29551;DHT22;16488;52.396;10.696;2022-07-10T12:45:10;19.30;87.00
29551;DHT22;16488;52.396;10.696;2022-07-10T12:47:46;19.40;83.80
29551;DHT22;16488;52.396;10.696;2022-07-10T12:50:13;19.50;84.80
29551;DHT22;16488;52.396;10.696;2022-07-10T12:52:39;19.70;85.60
29551;DHT22;16488;52.396;10.696;2022-07-10T12:55:06;19.80;85.00
29551;DHT22;16488;52.396;10.696;2022-07-10T12:57:33;19.60;87.20
29551;DHT22;16488;52.396;10.696;2022-07-10T13:00:07;19.80;85.70
29551;DHT22;16488;52.396;10.696;2022-07-10T13:02:38;19.90;85.60
29551;DHT22;16488;52.396;10.696;2022-07-10T13:05:04;19.80;85.20
29551;DHT22;16488;52.396;10.696;2022-07-10T13:07:35;19.90;84.80
29551;DHT22;16488;52.396;10.696;2022-07-10T13:10:06;20.10;83.80
29551;DHT22;16488;52.396;10.696;2022-07-10T13:12:32;20.20;81.80
29551;DHT22;16488;52.396;10.696;2022-07-10T13:14:58;20.20;83.50
29551;DHT22;16488;52.396;10.696;2022-07-10T13:17:24;20.10;84.70
29551;DHT22;16488;52.396;10.696;2022-07-10T13:19:50;20.10;82.40
29551;DHT22;16488;52.396;10.696;2022-07-10T13:22:16;20.00;82.60
29551;DHT22;16488;52.396;10.696;2022-07-10T13:24:42;19.90;85.50
29551;DHT22;16488;52.396;10.696;2022-07-10T13:27:08;20.00;83.70
29551;DHT22;16488;52.396;10.696;2022-07-10T13:29:33;20.10;82.30
29551;DHT22;16488;52.396;10.696;2022-07-10T13:31:59;20.20;82.60
29551;DHT22;16488;52.396;10.696;2022-07-10T13:34:24;20.40;83.00
29551;DHT22;16488;52.396;10.696;2022-07-10T13:36:50;20.40;82.00
29551;DHT22;16488;52.396;10.696;2022-07-10T13:39:17;20.10;81.90
29551;DHT22;16488;52.396;10.696;2022-07-10T13:41:42;19.90;83.30
29551;DHT22;16488;52.396;10.696;2022-07-10T13:44:08;19.70;84.20
29551;DHT22;16488;52.396;10.696;2022-07-10T13:46:34;19.70;84.10
29551;DHT22;16488;52.396;10.696;2022-07-10T13:49:01;19.70;84.00
29551;DHT22;16488;52.396;10.696;2022-07-10T13:51:27;19.60;84.40
29551;DHT22;16488;52.396;10.696;2022-07-10T13:53:52;19.30;84.40
29551;DHT22;16488;52.396;10.696;2022-07-10T13:56:18;19.20;86.50
29551;DHT22;16488;52.396;10.696;2022-07-10T13:58:44;19.20;86.30
29551;DHT22;16488;52.396;10.696;2022-07-10T14:01:09;19.40;85.50
29551;DHT22;16488;52.396;10.696;2022-07-10T14:03:35;19.60;83.70
29551;DHT22;16488;52.396;10.696;2022-07-10T14:06:00;19.80;82.20
29551;DHT22;16488;52.396;10.696;2022-07-10T14:08:26;19.80;81.00
29551;DHT22;16488;52.396;10.696;2022-07-10T14:10:52;19.90;82.40
29551;DHT22;16488;52.396;10.696;2022-07-10T14:13:17;19.90;83.40
29551;DHT22;16488;52.396;10.696;2022-07-10T14:15:43;20.10;83.20
29551;DHT22;16488;52.396;10.696;2022-07-10T14:18:12;20.20;81.80
29551;DHT22;16488;52.396;10.696;2022-07-10T14:20:38;20.30;81.30
29551;DHT22;16488;52.396;10.696;2022-07-10T14:23:22;20.30;81.60
29551;DHT22;16488;52.396;10.696;2022-07-10T14:25:48;20.30;82.10
29551;DHT22;16488;52.396;10.696;2022-07-10T14:28:13;20.10;82.10
29551;DHT22;16488;52.396;10.696;2022-07-10T14:30:42;19.80;83.20
29551;DHT22;16488;52.396;10.696;2022-07-10T14:33:08;19.60;83.90
29551;DHT22;16488;52.396;10.696;2022-07-10T14:35:34;19.50;83.80
29551;DHT22;16488;52.396;10.696;2022-07-10T14:38:00;19.50;86.10
29551;DHT22;16488;52.396;10.696;2022-07-10T14:40:26;19.60;85.60
29551;DHT22;16488;52.396;10.696;2022-07-10T14:42:51;19.70;85.90
29551;DHT22;16488;52.396;10.696;2022-07-10T14:45:17;19.80;86.30
29551;DHT22;16488;52.396;10.696;2022-07-10T14:47:43;20.00;86.30
29551;DHT22;16488;52.396;10.696;2022-07-10T14:50:09;20.00;84.40
29551;DHT22;16488;52.396;10.696;2022-07-10T14:52:35;20.10;85.40
29551;DHT22;16488;52.396;10.696;2022-07-10T14:55:03;20.10;83.70
29551;DHT22;16488;52.396;10.696;2022-07-10T14:57:29;20.20;85.30
29551;DHT22;16488;52.396;10.696;2022-07-10T14:59:54;20.30;83.80
29551;DHT22;16488;52.396;10.696;2022-07-10T15:02:20;20.30;81.90
29551;DHT22;16488;52.396;10.696;2022-07-10T15:04:45;20.10;82.40
29551;DHT22;16488;52.396;10.696;2022-07-10T15:07:11;19.90;84.00
29551;DHT22;16488;52.396;10.696;2022-07-10T15:09:37;19.70;85.20
29551;DHT22;16488;52.396;10.696;2022-07-10T15:12:03;19.70;85.80
29551;DHT22;16488;52.396;10.696;2022-07-10T15:14:29;19.80;85.70
29551;DHT22;16488;52.396;10.696;2022-07-10T15:16:55;19.70;84.50
29551;DHT22;16488;52.396;10.696;2022-07-10T15:19:20;19.60;86.10
29551;DHT22;16488;52.396;10.696;2022-07-10T15:21:46;19.60;86.70
29551;DHT22;16488;52.396;10.696;2022-07-10T15:24:12;19.80;84.80
29551;DHT22;16488;52.396;10.696;2022-07-10T15:26:38;19.90;84.40
29551;DHT22;16488;52.396;10.696;2022-07-10T15:29:13;19.90;85.50
29551;DHT22;16488;52.396;10.696;2022-07-10T15:31:39;19.90;84.50
29551;DHT22;16488;52.396;10.696;2022-07-10T15:34:10;20.10;84.70
29551;DHT22;16488;52.396;10.696;2022-07-10T15:36:38;20.00;84.00